createdAt,value
2023-03-01T00:01:03.723Z,18.83
2023-03-01T00:03:31.635Z,21.52
2023-03-01T00:06:00.857Z,20.58
2023-03-01T00:08:29.095Z,20.30
2023-03-01T00:11:04.444Z,19.52
2023-03-01T00:13:32.465Z,19.50
2023-03-01T00:16:00.365Z,18.27
2023-03-01T00:18:28.237Z,21.63
2023-03-01T00:20:56.630Z,18.13
2023-03-01T00:23:25.900Z,20.70
2023-03-01T00:25:53.867Z,19.73
2023-03-01T00:28:21.869Z,21.23
2023-03-01T00:30:49.829Z,18.98
2023-03-01T00:33:17.740Z,18.95
2023-03-01T00:35:45.669Z,18.35
2023-03-01T00:38:13.699Z,21.05
2023-03-01T00:40:42.930Z,19.13
2023-03-01T00:43:11.174Z,19.98
2023-03-01T00:45:39.069Z,18.45
2023-03-01T00:48:07.489Z,17.77
2023-03-01T00:50:35.379Z,20.02
2023-03-01T00:53:03.930Z,21.95
2023-03-01T00:55:31.850Z,18.05
2023-03-01T00:58:01.077Z,17.52
2023-03-01T01:00:29.127Z,17.73
2023-03-01T01:02:57.321Z,18.23
2023-03-01T01:05:25.190Z,18.45
2023-03-01T01:07:54.802Z,18.83
2023-03-01T01:10:22.671Z,17.48
2023-03-01T01:12:50.512Z,19.75
2023-03-01T01:15:19.974Z,17.70
2023-03-01T01:17:47.862Z,18.88
2023-03-01T01:20:15.822Z,18.90
2023-03-01T01:22:43.716Z,20.65
2023-03-01T01:25:12.626Z,22.02
2023-03-01T01:27:40.491Z,19.25
2023-03-01T01:30:09.785Z,17.52
2023-03-01T01:32:39.030Z,17.02
2023-03-01T01:35:07.296Z,17.98
2023-03-01T01:37:36.169Z,18.17
2023-03-01T01:40:05.606Z,16.05
2023-03-01T01:42:33.668Z,16.33
2023-03-01T01:45:27.099Z,21.73
2023-03-01T01:47:57.529Z,16.92
2023-03-01T01:50:25.409Z,18.00
2023-03-01T01:52:53.292Z,17.10
2023-03-01T01:55:22.527Z,17.08
2023-03-01T01:57:51.722Z,17.55
2023-03-01T02:00:21.334Z,18.85
2023-03-01T02:02:50.240Z,18.33
2023-03-01T02:05:24.525Z,18.27
2023-03-01T02:07:52.403Z,19.58
2023-03-01T02:10:21.875Z,16.27
2023-03-01T02:12:49.748Z,19.65
2023-03-01T02:15:17.685Z,16.50
2023-03-01T02:17:45.608Z,16.63
2023-03-01T02:20:17.124Z,17.63
2023-03-01T02:22:46.894Z,14.68
2023-03-01T02:25:26.406Z,16.65
2023-03-01T02:27:56.781Z,17.70
2023-03-01T02:30:26.014Z,16.60
2023-03-01T02:32:54.401Z,16.83
2023-03-01T02:35:22.458Z,17.48
2023-03-01T02:37:50.348Z,16.10
2023-03-01T02:40:19.079Z,16.80
2023-03-01T02:42:51.750Z,16.63
2023-03-01T02:45:19.830Z,17.60
2023-03-01T02:47:49.052Z,17.58
2023-03-01T02:50:23.737Z,17.67
2023-03-01T02:52:55.557Z,18.67
2023-03-01T02:55:23.575Z,17.75
2023-03-01T02:57:51.692Z,16.20
2023-03-01T03:00:21.069Z,17.45
2023-03-01T03:02:51.040Z,18.73
2023-03-01T03:05:21.408Z,18.52
2023-03-01T03:07:51.944Z,16.45
2023-03-01T03:10:21.944Z,16.23
2023-03-01T03:12:51.594Z,16.38
2023-03-01T03:15:19.886Z,17.33
2023-03-01T03:17:47.727Z,16.77
2023-03-01T03:20:20.044Z,16.70
2023-03-01T03:22:48.485Z,15.55
2023-03-01T03:25:16.566Z,18.13
2023-03-01T03:27:45.937Z,17.60
2023-03-01T03:30:15.731Z,18.17
2023-03-01T03:32:53.039Z,16.60
2023-03-01T03:35:22.886Z,18.13
2023-03-01T03:38:07.045Z,16.35
2023-03-01T03:40:36.503Z,17.17
2023-03-01T03:43:04.570Z,16.35
2023-03-01T03:45:34.242Z,15.85
2023-03-01T03:48:02.347Z,17.10
2023-03-01T03:50:31.601Z,16.83
2023-03-01T03:52:59.514Z,15.25
2023-03-01T03:55:31.460Z,16.48
2023-03-01T03:58:02.944Z,17.70
2023-03-01T04:00:30.827Z,16.08
2023-03-01T04:02:58.727Z,17.08
2023-03-01T04:05:27.508Z,16.88
2023-03-01T04:08:08.099Z,16.52
2023-03-01T04:10:37.910Z,16.63
2023-03-01T04:13:05.981Z,17.90
2023-03-01T04:15:33.944Z,16.33
2023-03-01T04:18:01.842Z,17.08
2023-03-01T04:20:30.939Z,16.45
2023-03-01T04:23:09.542Z,16.23
2023-03-01T04:25:37.432Z,15.90
2023-03-01T04:28:05.642Z,15.75
2023-03-01T04:30:36.630Z,15.77
2023-03-01T04:33:05.804Z,16.10
2023-03-01T04:35:33.836Z,17.02
2023-03-01T04:38:03.101Z,17.23
2023-03-01T04:40:30.972Z,17.13
2023-03-01T04:42:58.875Z,16.65
2023-03-01T04:45:26.779Z,17.88
2023-03-01T04:47:54.637Z,16.02
2023-03-01T04:50:24.379Z,16.98
2023-03-01T04:52:52.297Z,16.60
2023-03-01T04:55:21.511Z,16.75
2023-03-01T04:57:49.485Z,16.65
2023-03-01T05:00:23.739Z,17.17
2023-03-01T05:02:54.359Z,16.08
2023-03-01T05:05:26.304Z,17.20
2023-03-01T05:07:55.543Z,16.02
2023-03-01T05:10:24.991Z,16.05
2023-03-01T05:12:54.273Z,15.65
2023-03-01T05:15:26.422Z,15.35
2023-03-01T05:17:55.165Z,15.68
2023-03-01T05:20:24.502Z,17.55
2023-03-01T05:22:52.463Z,17.42
2023-03-01T05:25:22.423Z,15.32
2023-03-01T05:27:51.701Z,17.83
2023-03-01T05:30:19.943Z,18.80
2023-03-01T05:32:48.719Z,21.88
2023-03-01T05:35:18.201Z,20.33
2023-03-01T05:37:46.953Z,16.10
2023-03-01T05:40:17.410Z,15.52
2023-03-01T05:42:46.061Z,16.88
2023-03-01T05:45:15.363Z,16.73
2023-03-01T05:47:44.658Z,18.23
2023-03-01T05:50:14.377Z,15.98
2023-03-01T05:52:42.370Z,15.88
2023-03-01T05:55:11.002Z,18.02
2023-03-01T05:57:38.885Z,14.80
2023-03-01T06:00:08.182Z,15.80
2023-03-01T06:02:41.857Z,16.83
2023-03-01T06:05:10.936Z,16.48
2023-03-01T06:07:38.932Z,16.13
2023-03-01T06:10:07.738Z,15.82
2023-03-01T06:12:35.860Z,15.63
2023-03-01T06:15:04.627Z,16.60
2023-03-01T06:17:32.854Z,19.55
2023-03-01T06:20:02.367Z,18.85
2023-03-01T06:22:30.246Z,15.38
2023-03-01T06:24:58.182Z,15.38
2023-03-01T06:27:26.083Z,17.10
2023-03-01T06:29:53.962Z,16.85
2023-03-01T06:32:21.940Z,38.25
2023-03-01T06:34:49.821Z,35.42
2023-03-01T06:37:19.090Z,29.73
2023-03-01T06:39:46.946Z,50.25
2023-03-01T06:42:14.898Z,45.92
2023-03-01T06:44:42.721Z,35.95
2023-03-01T06:47:10.640Z,39.78
2023-03-01T06:49:38.481Z,43.33
2023-03-01T06:52:06.480Z,40.50
2023-03-01T06:54:35.736Z,38.88
2023-03-01T06:57:03.638Z,34.00
2023-03-01T06:59:32.427Z,44.35
2023-03-01T07:02:00.412Z,52.10
2023-03-01T07:04:29.576Z,39.67
2023-03-01T07:06:57.448Z,38.17
2023-03-01T07:09:25.383Z,35.28
2023-03-01T07:11:54.558Z,39.88
2023-03-01T07:14:22.680Z,40.47
2023-03-01T07:16:50.537Z,39.28
2023-03-01T07:19:18.473Z,39.58
2023-03-01T07:21:46.304Z,36.08
2023-03-01T07:24:14.147Z,35.47
2023-03-01T07:26:42.064Z,30.23
2023-03-01T07:29:12.027Z,30.80
2023-03-01T07:31:39.878Z,37.47
2023-03-01T07:34:07.743Z,35.03
2023-03-01T07:36:35.620Z,34.42
2023-03-01T07:39:04.146Z,33.60
2023-03-01T07:41:32.049Z,34.60
2023-03-01T07:43:59.979Z,30.90
2023-03-01T07:46:29.579Z,31.10
2023-03-01T07:48:58.996Z,30.67
2023-03-01T07:51:26.964Z,28.95
2023-03-01T07:53:54.809Z,27.75
2023-03-01T07:56:23.023Z,26.48
2023-03-01T07:58:51.268Z,27.27
2023-03-01T08:01:20.547Z,29.45
2023-03-01T08:03:49.915Z,27.90
2023-03-01T08:06:18.749Z,28.67
2023-03-01T08:08:46.712Z,27.23
2023-03-01T08:11:15.431Z,24.17
2023-03-01T08:13:43.520Z,24.02
2023-03-01T08:16:13.110Z,28.27
2023-03-01T08:18:41.066Z,25.27
2023-03-01T08:21:12.304Z,24.00
2023-03-01T08:23:41.131Z,25.00
2023-03-01T08:26:09.694Z,24.20
2023-03-01T08:28:37.686Z,25.77
2023-03-01T08:31:05.832Z,26.48
2023-03-01T08:33:33.752Z,21.58
2023-03-01T08:36:05.716Z,25.98
2023-03-01T08:38:34.926Z,23.35
2023-03-01T08:41:03.040Z,21.50
2023-03-01T08:43:31.163Z,23.95
2023-03-01T08:45:59.088Z,22.80
2023-03-01T08:48:27.141Z,21.17
2023-03-01T08:50:55.068Z,24.52
2023-03-01T08:53:22.992Z,24.42
2023-03-01T08:55:52.235Z,26.73
2023-03-01T08:58:20.078Z,22.80
2023-03-01T09:00:47.927Z,34.78
2023-03-01T09:03:15.850Z,73.80
2023-03-01T09:05:43.708Z,120.03
2023-03-01T09:08:11.652Z,84.78
2023-03-01T09:10:40.365Z,89.82
2023-03-01T09:13:09.591Z,88.30
2023-03-01T09:15:38.757Z,87.97
2023-03-01T09:18:06.884Z,76.85
2023-03-01T09:20:34.777Z,69.35
2023-03-01T09:23:03.232Z,79.70
2023-03-01T09:25:31.117Z,71.50
2023-03-01T09:27:58.970Z,73.95
2023-03-01T09:30:28.421Z,60.63
2023-03-01T09:32:58.045Z,67.10
2023-03-01T09:35:26.039Z,61.35
2023-03-01T09:37:54.135Z,58.08
2023-03-01T09:40:23.354Z,53.70
2023-03-01T09:42:55.149Z,51.90
2023-03-01T09:45:29.580Z,50.70
2023-03-01T09:47:57.498Z,48.25
2023-03-01T09:50:25.544Z,51.67
2023-03-01T09:52:56.718Z,41.38
2023-03-01T09:55:31.423Z,47.20
2023-03-01T09:58:03.424Z,37.42
2023-03-01T10:00:37.924Z,39.00
2023-03-01T10:03:13.096Z,34.17
2023-03-01T10:05:46.129Z,34.88
2023-03-01T10:08:37.414Z,31.33
2023-03-01T10:11:05.870Z,31.85
2023-03-01T10:13:39.272Z,30.02
2023-03-01T10:16:12.547Z,33.22
2023-03-01T10:18:40.476Z,33.08
2023-03-01T10:21:15.346Z,37.63
2023-03-01T10:23:43.217Z,34.05
2023-03-01T10:26:31.537Z,27.38
2023-03-01T10:29:03.674Z,25.60
2023-03-01T10:31:39.218Z,30.42
2023-03-01T10:34:10.862Z,30.45
2023-03-01T10:36:38.828Z,30.55
2023-03-01T10:39:13.590Z,24.35
2023-03-01T10:41:59.263Z,27.85
2023-03-01T10:44:41.500Z,24.25
2023-03-01T10:47:21.225Z,20.48
2023-03-01T10:50:19.691Z,22.58
2023-03-01T10:52:58.727Z,22.85
2023-03-01T10:55:28.995Z,20.27
2023-03-01T10:58:09.105Z,23.45
2023-03-01T11:00:47.054Z,22.13
2023-03-01T11:03:25.836Z,24.25
2023-03-01T11:05:58.772Z,25.42
2023-03-01T11:08:35.114Z,19.67
2023-03-01T11:11:22.295Z,19.42
2023-03-01T11:13:53.571Z,19.55
2023-03-01T11:16:32.039Z,25.10
2023-03-01T11:19:17.232Z,19.38
2023-03-01T11:21:49.698Z,21.20
2023-03-01T11:24:17.548Z,18.58
2023-03-01T11:26:47.188Z,16.02
2023-03-01T11:29:19.627Z,18.60
2023-03-01T11:31:57.326Z,20.55
2023-03-01T11:34:34.767Z,19.83
2023-03-01T11:37:03.750Z,18.85
2023-03-01T11:39:34.994Z,17.23
2023-03-01T11:42:18.024Z,18.05
2023-03-01T11:44:46.931Z,14.45
2023-03-01T11:47:24.390Z,17.73
2023-03-01T11:50:00.772Z,17.52
2023-03-01T11:52:33.980Z,16.13
2023-03-01T11:55:12.312Z,15.60
2023-03-01T11:57:55.693Z,15.88
2023-03-01T12:00:29.847Z,16.35
2023-03-01T12:03:23.966Z,15.23
2023-03-01T12:06:11.296Z,16.77
2023-03-01T12:08:41.664Z,16.55
2023-03-01T12:11:16.049Z,16.23
2023-03-01T12:14:09.389Z,14.57
2023-03-01T12:16:49.703Z,14.88
2023-03-01T12:19:30.913Z,13.15
2023-03-01T12:22:11.318Z,13.73
2023-03-01T12:25:17.973Z,14.98
2023-03-01T12:28:15.817Z,13.77
2023-03-01T12:30:52.353Z,14.88
2023-03-01T12:33:25.167Z,14.85
2023-03-01T12:36:14.172Z,15.73
2023-03-01T12:38:44.787Z,10.48
2023-03-01T12:41:30.160Z,13.90
2023-03-01T12:44:07.198Z,16.42
2023-03-01T12:46:41.472Z,13.95
2023-03-01T12:49:11.974Z,12.48
2023-03-01T12:51:40.643Z,13.27
2023-03-01T12:54:16.545Z,14.65
2023-03-01T12:56:45.265Z,10.90
2023-03-01T12:59:16.781Z,14.13
2023-03-01T13:01:47.589Z,11.68
2023-03-01T13:04:23.391Z,10.68
2023-03-01T13:06:58.032Z,14.57
2023-03-01T13:09:31.707Z,11.55
2023-03-01T13:11:59.665Z,12.93
2023-03-01T13:14:47.011Z,11.82
2023-03-01T13:17:45.082Z,12.20
2023-03-01T13:20:17.532Z,11.95
2023-03-01T13:22:54.269Z,13.75
2023-03-01T13:25:27.646Z,12.10
2023-03-01T13:28:29.723Z,13.07
2023-03-01T13:30:57.605Z,12.10
2023-03-01T13:33:47.506Z,11.82
2023-03-01T13:36:49.134Z,10.73
2023-03-01T13:39:32.336Z,12.05
2023-03-01T13:42:01.999Z,10.80
2023-03-01T13:44:32.760Z,10.63
2023-03-01T13:47:01.614Z,11.50
2023-03-01T13:49:41.082Z,10.60
2023-03-01T13:52:32.713Z,11.32
2023-03-01T13:55:00.648Z,9.05
2023-03-01T13:57:35.438Z,10.80
2023-03-01T14:00:04.030Z,12.52
2023-03-01T14:02:33.436Z,10.07
2023-03-01T14:05:01.510Z,10.85
2023-03-01T14:07:31.144Z,9.52
2023-03-01T14:10:00.193Z,11.70
2023-03-01T14:12:35.891Z,10.15
2023-03-01T14:15:04.430Z,11.65
2023-03-01T14:18:02.268Z,10.70
2023-03-01T14:20:31.724Z,10.07
2023-03-01T14:23:00.389Z,9.55
2023-03-01T14:25:30.851Z,10.52
2023-03-01T14:28:04.640Z,11.32
2023-03-01T14:30:38.629Z,8.93
2023-03-01T14:33:07.811Z,9.50
2023-03-01T14:35:37.324Z,8.82
2023-03-01T14:38:05.422Z,9.40
2023-03-01T14:40:34.597Z,9.05
2023-03-01T14:43:04.509Z,9.38
2023-03-01T14:45:32.561Z,11.30
2023-03-01T14:48:01.417Z,9.18
2023-03-01T14:50:30.497Z,8.82
2023-03-01T14:53:00.733Z,8.73
2023-03-01T14:55:30.858Z,8.93
2023-03-01T14:57:59.438Z,8.30
2023-03-01T15:00:30.764Z,7.88
2023-03-01T15:02:59.921Z,8.82
2023-03-01T15:05:31.014Z,10.68
2023-03-01T15:07:59.187Z,6.97
2023-03-01T15:10:28.082Z,9.38
2023-03-01T15:12:56.044Z,8.88
2023-03-01T15:15:39.622Z,7.75
2023-03-01T15:18:14.941Z,8.57
2023-03-01T15:20:42.867Z,8.60
2023-03-01T15:23:26.156Z,9.30
2023-03-01T15:25:58.180Z,8.45
2023-03-01T15:28:27.196Z,8.70
2023-03-01T15:30:57.916Z,10.70
2023-03-01T15:33:36.783Z,8.35
2023-03-01T15:36:06.129Z,7.55
2023-03-01T15:38:39.056Z,8.38
2023-03-01T15:41:07.911Z,7.80
2023-03-01T15:43:44.082Z,8.00
2023-03-01T15:46:21.027Z,9.55
2023-03-01T15:48:50.334Z,8.90
2023-03-01T15:51:18.233Z,8.32
2023-03-01T15:53:54.177Z,10.15
2023-03-01T15:56:23.212Z,7.82
2023-03-01T15:58:59.508Z,10.10
2023-03-01T16:01:28.831Z,10.00
2023-03-01T16:03:57.492Z,9.55
2023-03-01T16:06:25.541Z,10.20
2023-03-01T16:08:53.471Z,8.43
2023-03-01T16:11:21.909Z,8.00
2023-03-01T16:13:50.692Z,9.00
2023-03-01T16:16:18.793Z,9.18
2023-03-01T16:18:48.359Z,10.68
2023-03-01T16:21:22.099Z,9.82
2023-03-01T16:23:50.013Z,10.70
2023-03-01T16:26:20.331Z,10.23
2023-03-01T16:28:49.167Z,9.73
2023-03-01T16:31:19.741Z,7.95
2023-03-01T16:34:02.810Z,9.90
2023-03-01T16:36:42.126Z,7.82
2023-03-01T16:39:10.853Z,9.55
2023-03-01T16:41:38.833Z,8.32
2023-03-01T16:44:06.889Z,12.48
2023-03-01T16:46:34.732Z,9.80
2023-03-01T16:49:04.555Z,7.40
2023-03-01T16:51:35.568Z,9.80
2023-03-01T16:54:05.436Z,9.30
2023-03-01T16:56:35.199Z,10.50
2023-03-01T16:59:05.669Z,9.23
2023-03-01T17:01:40.412Z,8.55
2023-03-01T17:04:12.196Z,8.48
2023-03-01T17:06:40.131Z,13.65
2023-03-01T17:09:08.023Z,9.98
2023-03-01T17:11:35.973Z,10.07
2023-03-01T17:14:04.111Z,7.78
2023-03-01T17:16:31.995Z,9.75
2023-03-01T17:18:59.972Z,11.45
2023-03-01T17:21:29.657Z,10.45
2023-03-01T17:23:58.190Z,13.60
2023-03-01T17:26:26.078Z,11.55
2023-03-01T17:28:53.988Z,9.82
2023-03-01T17:31:22.035Z,11.15
2023-03-01T17:33:50.155Z,7.53
2023-03-01T17:36:18.173Z,10.18
2023-03-01T17:38:47.508Z,11.00
2023-03-01T17:41:17.718Z,10.45
2023-03-01T17:43:45.740Z,11.05
2023-03-01T17:46:13.816Z,7.72
2023-03-01T17:48:41.891Z,9.75
2023-03-01T17:51:11.190Z,10.35
2023-03-01T17:53:39.367Z,9.70
2023-03-01T17:56:10.093Z,10.80
2023-03-01T17:58:39.380Z,8.52
2023-03-01T18:01:12.239Z,10.27
2023-03-01T18:03:40.568Z,12.45
2023-03-01T18:06:18.401Z,9.90
2023-03-01T18:08:46.564Z,9.88
2023-03-01T18:11:15.900Z,9.77
2023-03-01T18:13:43.926Z,9.52
2023-03-01T18:16:13.211Z,10.02
2023-03-01T18:18:42.155Z,9.25
2023-03-01T18:21:10.369Z,10.63
2023-03-01T18:23:38.410Z,10.38
2023-03-01T18:26:09.993Z,8.40
2023-03-01T18:28:40.659Z,9.65
2023-03-01T18:31:10.777Z,9.93
2023-03-01T18:33:39.040Z,10.50
2023-03-01T18:36:07.730Z,10.13
2023-03-01T18:38:35.827Z,9.23
2023-03-01T18:41:04.221Z,9.80
2023-03-01T18:43:32.878Z,11.80
2023-03-01T18:46:05.218Z,11.40
2023-03-01T18:48:33.500Z,10.20
2023-03-01T18:51:09.392Z,18.75
2023-03-01T18:53:37.854Z,19.20
2023-03-01T18:56:08.671Z,14.48
2023-03-01T18:58:37.222Z,12.95
2023-03-01T19:01:08.347Z,12.50
2023-03-01T19:03:37.598Z,18.52
2023-03-01T19:06:06.326Z,14.93
2023-03-01T19:08:34.633Z,17.33
2023-03-01T19:11:03.494Z,15.98
2023-03-01T19:13:31.827Z,16.88
2023-03-01T19:16:08.201Z,17.45
2023-03-01T19:18:36.788Z,14.05
2023-03-01T19:21:05.592Z,18.38
2023-03-01T19:23:35.059Z,17.50
2023-03-01T19:26:03.574Z,14.77
2023-03-01T19:28:32.422Z,17.65
2023-03-01T19:31:02.404Z,19.00
2023-03-01T19:33:32.780Z,16.05
2023-03-01T19:36:01.262Z,18.60
2023-03-01T19:38:29.499Z,11.52
2023-03-01T19:40:57.937Z,16.50
2023-03-01T19:43:26.245Z,15.65
2023-03-01T19:45:55.098Z,14.65
2023-03-01T19:48:23.589Z,13.40
2023-03-01T19:50:54.214Z,12.98
2023-03-01T19:53:22.974Z,14.50
2023-03-01T19:55:53.239Z,13.93
2023-03-01T19:58:25.093Z,14.80
2023-03-01T20:00:58.786Z,13.68
2023-03-01T20:03:27.804Z,17.42
2023-03-01T20:05:58.589Z,12.38
2023-03-01T20:08:27.851Z,15.10
2023-03-01T20:11:02.102Z,14.85
2023-03-01T20:13:30.152Z,14.45
2023-03-01T20:15:58.410Z,16.38
2023-03-01T20:18:26.466Z,12.95
2023-03-01T20:20:54.428Z,14.68
2023-03-01T20:23:23.681Z,15.82
2023-03-01T20:25:51.641Z,15.35
2023-03-01T20:28:20.071Z,16.58
2023-03-01T20:30:47.928Z,19.63
2023-03-01T20:33:17.007Z,15.15
2023-03-01T20:35:45.357Z,12.38
2023-03-01T20:38:13.383Z,16.20
2023-03-01T20:40:42.588Z,15.38
2023-03-01T20:43:10.516Z,14.75
2023-03-01T20:45:39.192Z,18.90
2023-03-01T20:48:07.411Z,16.80
2023-03-01T20:50:35.468Z,13.25
2023-03-01T20:53:03.349Z,13.95
2023-03-01T20:55:31.238Z,16.33
2023-03-01T20:58:00.610Z,15.70
2023-03-01T21:00:29.278Z,18.00
2023-03-01T21:02:57.217Z,18.85
2023-03-01T21:05:25.117Z,15.80
2023-03-01T21:07:53.052Z,22.02
2023-03-01T21:10:20.991Z,15.00
2023-03-01T21:12:48.949Z,13.65
2023-03-01T21:15:28.757Z,14.55
2023-03-01T21:17:57.532Z,13.82
2023-03-01T21:20:25.409Z,13.07
2023-03-01T21:22:53.295Z,14.38
2023-03-01T21:25:21.217Z,16.23
2023-03-01T21:27:49.148Z,12.80
2023-03-01T21:30:18.856Z,15.88
2023-03-01T21:32:46.762Z,17.45
2023-03-01T21:35:14.901Z,13.20
2023-03-01T21:37:42.758Z,14.60
2023-03-01T21:40:11.783Z,15.52
2023-03-01T21:42:40.504Z,17.48
2023-03-01T21:45:09.304Z,15.02
2023-03-01T21:47:39.338Z,13.13
2023-03-01T21:50:08.576Z,13.38
2023-03-01T21:52:36.446Z,15.05
2023-03-01T21:55:04.406Z,15.38
2023-03-01T21:57:32.252Z,15.85
2023-03-01T22:00:00.108Z,14.27
2023-03-01T22:02:27.981Z,13.48
2023-03-01T22:04:57.432Z,17.92
2023-03-01T22:07:25.323Z,13.55
2023-03-01T22:09:53.164Z,17.65
2023-03-01T22:12:20.997Z,26.33
2023-03-01T22:14:48.854Z,14.07
2023-03-01T22:17:16.709Z,18.13
2023-03-01T22:19:46.180Z,14.20
2023-03-01T22:22:15.390Z,15.30
2023-03-01T22:24:43.255Z,13.55
2023-03-01T22:27:11.139Z,16.30
2023-03-01T22:29:38.989Z,18.65
2023-03-01T22:32:07.031Z,13.75
2023-03-01T22:34:35.927Z,19.20
2023-03-01T22:37:04.630Z,16.98
2023-03-01T22:39:33.917Z,13.80
2023-03-01T22:42:01.747Z,22.67
2023-03-01T22:44:29.623Z,15.48
2023-03-01T22:46:57.470Z,17.58
2023-03-01T22:49:25.525Z,18.35
2023-03-01T22:51:53.379Z,16.10
2023-03-01T22:54:21.282Z,15.65
2023-03-01T22:56:50.506Z,15.75
2023-03-01T22:59:20.733Z,15.52
2023-03-01T23:01:49.037Z,14.05
2023-03-01T23:04:17.467Z,17.58
2023-03-01T23:06:51.903Z,18.98
2023-03-01T23:09:20.306Z,14.23
2023-03-01T23:11:48.193Z,16.15
2023-03-01T23:14:17.458Z,15.65
2023-03-01T23:16:45.346Z,15.02
2023-03-01T23:19:13.602Z,14.20
2023-03-01T23:21:46.390Z,16.42
2023-03-01T23:24:14.549Z,16.08
2023-03-01T23:26:42.430Z,15.35
2023-03-01T23:29:10.366Z,16.80
2023-03-01T23:31:39.979Z,16.48
2023-03-01T23:34:07.929Z,16.63
2023-03-01T23:36:36.205Z,15.93
2023-03-01T23:39:05.267Z,15.25
2023-03-01T23:41:34.125Z,17.58
2023-03-01T23:44:03.287Z,15.25
2023-03-01T23:46:32.816Z,16.35
2023-03-01T23:49:02.449Z,16.63
2023-03-01T23:51:30.346Z,17.08
2023-03-01T23:54:00.629Z,17.15
2023-03-01T23:56:30.111Z,16.55
2023-03-01T23:58:59.579Z,16.10
